Buffalo, WY (82834)

4:27 AM MDT on August 29, 2015 (GMT -0600)
Buffalo | | Change Station
CLOSE
Current Station
Personal Weather Station
Location: Buffalo, WY
Elevation: 4708 ft
Nearby Weather Stations
Active Advisory: Fire Weather Warning

Elev 4708 ft 44.34 °N, 106.70 °W | Updated 18 seconds ago

Clear
Clear
66.4 °F
Feels Like 66.4 °F
N
4.3
Wind Variable Wind from SW
Gusts 4.9 mph

Today
High -- | Low -- °F
--% Chance of Precip.
Yesterday
High -- | Low -- °F
Precip. -- in
6:26 AM 7:48 PM
Full, 100% visible
Pressure 29.92 in
Visibility 10.0 miles
Clouds Clear
Dew Point 32 °F
Humidity 28%
Rainfall 0.00 in
Snow Depth Not available.
UV 0.0 out of 12
Pollen 9.00 out of 12
Air Quality Not available.
Flu Activity Not available.
METAR KBYG 290953Z AUTO 25003KT 10SM CLR 22/M01 A3012 RMK AO2 SLP131 T02171011
Pressure 29.92 in
Visibility 10.0 miles
Clouds Clear
Dew Point 32 °F
Humidity 28%
Rainfall 0.00 in
Snow Depth Not available.
UV 0.0 out of 12
Pollen 9.00 out of 12
Air Quality Not available.
Flu Activity Not available.
METAR KBYG 290953Z AUTO 25003KT 10SM CLR 22/M01 A3012 RMK AO2 SLP131 T02171011

10-Day Weather Forecast

×

Almanac

Astronomy

Aug. 29, 2015 Rise Set
Actual Time
Civil Twilight
Nautical Twilight
Astronomical Twilight
Moon
Length of Visible Light
Length of Day
Tomorrow will be .
, % of the Moon is Illuminated

Today's Extremes

State Highs State Lows

Community

WunderPhotos

Upload Photos

1,850,633 photos uploaded!

WunderBlogs® & News

Nearby

Air Quality

  Air Quality AQ Index Pollutant
Not available.

Snow Depth

Station Depth Elevation

Earthquake Activity

City Distance Mag. Time & Date
Minimum magnitude displayed is 2.5.

Coastal Water Temperatures

Place Temperature

Stations

Nearby Weather Stations

Station Location Temp. Windchill Dew Point Humidity Wind Precip. Elev Updated Type
                   
Fire Weather Warning
Statement as of 2:30 AM MDT on August 29, 2015

... Red flag warning remains in effect from 11 am this morning to
9 PM MDT this evening for strong wind... low humidity and a Haines
index of 6...

* wind... southwest 10 to 15 mph with occasional gusts to 25 mph
early afternoon in deeper basins and sheltered areas today... widespread
15 to 25 mph winds with gusts around 35 mph developing after
1500 elsewhere.

* Humidity... 7 to 15 percent.

* Haines index... 6

* impacts... any fires that develop will likely spread rapidly.
Outdoor burning is not recommended.

Precautionary/preparedness actions...

A red flag warning means that critical fire weather conditions
are either occurring now... or will shortly. A combination of
strong winds... low relative humidity... and warm temperatures will
create extreme fire behavior.